createdAt,value
2023-04-02T00:00:59.572Z,136.31
2023-04-02T00:01:59.668Z,131.79
2023-04-02T00:02:59.734Z,128.87
2023-04-02T00:03:59.843Z,131.70
2023-04-02T00:04:59.775Z,134.60
2023-04-02T00:05:59.836Z,123.81
2023-04-02T00:06:59.887Z,130.68
2023-04-02T00:07:59.922Z,120.19
2023-04-02T00:08:59.977Z,121.65
2023-04-02T00:10:00.074Z,114.12
2023-04-02T00:11:00.170Z,118.33
2023-04-02T00:12:00.152Z,120.57
2023-04-02T00:13:00.229Z,125.31
2023-04-02T00:14:00.275Z,125.48
2023-04-02T00:15:00.309Z,134.93
2023-04-02T00:16:00.402Z,133.64
2023-04-02T00:17:00.407Z,133.05
2023-04-02T00:18:00.503Z,136.82
2023-04-02T00:19:00.534Z,137.49
2023-04-02T00:20:00.556Z,136.40
2023-04-02T00:21:00.604Z,134.99
2023-04-02T00:22:00.677Z,134.34
2023-04-02T00:23:00.724Z,136.01
2023-04-02T00:24:00.774Z,136.19
2023-04-02T00:25:00.815Z,133.30
2023-04-02T00:26:00.852Z,133.56
2023-04-02T00:27:00.887Z,134.33
2023-04-02T00:28:00.953Z,134.74
2023-04-02T00:29:01.004Z,131.31
2023-04-02T00:30:01.046Z,133.62
2023-04-02T00:31:01.072Z,137.16
2023-04-02T00:32:01.182Z,133.80
2023-04-02T00:33:01.199Z,134.88
2023-04-02T00:34:01.223Z,133.40
2023-04-02T00:35:01.274Z,125.79
2023-04-02T00:36:01.337Z,134.48
2023-04-02T00:37:01.389Z,137.55
2023-04-02T00:38:01.414Z,138.28
2023-04-02T00:39:01.448Z,140.98
2023-04-02T00:40:01.518Z,142.74
2023-04-02T00:41:01.539Z,144.21
2023-04-02T00:42:01.582Z,141.85
2023-04-02T00:43:01.638Z,143.91
2023-04-02T00:44:01.684Z,149.05
2023-04-02T00:45:01.723Z,150.23
2023-04-02T00:46:01.779Z,151.55
2023-04-02T00:47:01.810Z,154.89
2023-04-02T00:48:01.871Z,155.16
2023-04-02T00:49:01.894Z,157.01
2023-04-02T00:50:01.928Z,160.27
2023-04-02T00:51:01.954Z,158.82
2023-04-02T00:52:02.040Z,159.23
2023-04-02T00:53:02.030Z,160.10
2023-04-02T00:54:02.070Z,160.11
2023-04-02T00:55:02.134Z,160.43
2023-04-02T00:56:02.197Z,161.82
2023-04-02T00:57:02.258Z,160.89
2023-04-02T00:58:02.273Z,160.02
2023-04-02T00:59:02.319Z,161.33
2023-04-02T01:00:02.341Z,162.62
2023-04-02T01:01:02.461Z,157.87
2023-04-02T01:02:02.409Z,157.76
2023-04-02T01:03:02.572Z,153.65
2023-04-02T01:04:02.532Z,156.45
2023-04-02T01:05:02.715Z,154.58
2023-04-02T01:06:02.627Z,150.58
2023-04-02T01:07:02.663Z,150.25
2023-04-02T01:08:02.718Z,151.55
2023-04-02T01:09:02.740Z,151.09
2023-04-02T01:10:02.795Z,153.41
2023-04-02T01:11:02.819Z,153.21
2023-04-02T01:12:02.879Z,153.57
2023-04-02T01:13:02.908Z,154.27
2023-04-02T01:14:02.968Z,155.04
2023-04-02T01:15:02.999Z,158.71
2023-04-02T01:16:03.056Z,159.15
2023-04-02T01:17:03.066Z,161.87
2023-04-02T01:18:03.180Z,158.39
2023-04-02T01:19:03.177Z,160.62
2023-04-02T01:20:03.230Z,161.55
2023-04-02T01:21:03.273Z,160.58
2023-04-02T01:22:03.309Z,160.45
2023-04-02T01:23:03.368Z,161.75
2023-04-02T01:24:03.406Z,161.18
2023-04-02T01:25:03.424Z,158.80
2023-04-02T01:26:03.489Z,158.55
2023-04-02T01:27:03.570Z,161.12
2023-04-02T01:28:03.545Z,160.60
2023-04-02T01:29:03.571Z,159.41
2023-04-02T01:30:03.633Z,160.84
2023-04-02T01:31:03.652Z,158.86
2023-04-02T01:32:03.687Z,159.38
2023-04-02T01:33:03.743Z,157.53
2023-04-02T01:34:03.714Z,155.65
2023-04-02T01:35:03.755Z,155.45
2023-04-02T01:36:03.794Z,153.15
2023-04-02T01:37:03.806Z,156.01
2023-04-02T01:38:03.837Z,154.85
2023-04-02T01:39:03.860Z,153.45
2023-04-02T01:40:03.884Z,153.28
2023-04-02T01:41:03.924Z,154.79
2023-04-02T01:42:03.966Z,159.43
2023-04-02T01:43:04.012Z,158.35
2023-04-02T01:44:04.056Z,159.63
2023-04-02T01:45:04.068Z,158.95
2023-04-02T01:46:04.172Z,159.87
2023-04-02T01:47:04.122Z,161.08
2023-04-02T01:48:04.183Z,158.71
2023-04-02T01:49:04.172Z,158.55
2023-04-02T01:50:04.200Z,162.29
2023-04-02T01:51:04.224Z,168.41
2023-04-02T01:52:04.253Z,171.48
2023-04-02T01:53:04.265Z,171.87
2023-04-02T01:54:04.282Z,176.40
2023-04-02T01:55:04.334Z,174.10
2023-04-02T01:56:04.353Z,174.51
2023-04-02T01:57:04.423Z,176.64
2023-04-02T01:58:04.419Z,174.77
2023-04-02T01:59:04.433Z,174.11
2023-04-02T02:00:04.469Z,171.25
2023-04-02T02:01:04.549Z,173.88
2023-04-02T02:02:04.537Z,172.77
2023-04-02T02:03:04.682Z,171.49
2023-04-02T02:04:04.611Z,169.51
2023-04-02T02:05:04.630Z,169.50
2023-04-02T02:06:04.672Z,168.67
2023-04-02T02:07:04.688Z,166.71
2023-04-02T02:08:04.710Z,169.88
2023-04-02T02:09:04.768Z,169.48
2023-04-02T02:10:04.877Z,168.84
2023-04-02T02:11:04.807Z,164.79
2023-04-02T02:12:04.854Z,163.88
2023-04-02T02:13:04.888Z,160.79
2023-04-02T02:14:04.919Z,159.61
2023-04-02T02:15:04.924Z,159.97
2023-04-02T02:16:05.012Z,159.46
2023-04-02T02:17:04.982Z,161.25
2023-04-02T02:18:04.986Z,161.64
2023-04-02T02:19:05.019Z,162.76
2023-04-02T02:20:05.032Z,162.57
2023-04-02T02:21:05.056Z,161.26
2023-04-02T02:22:05.072Z,161.62
2023-04-02T02:23:05.075Z,158.29
2023-04-02T02:24:05.078Z,155.11
2023-04-02T02:25:05.080Z,152.42
2023-04-02T02:26:05.114Z,149.40
2023-04-02T02:27:05.128Z,152.89
2023-04-02T02:28:05.156Z,154.10
2023-04-02T02:29:05.166Z,157.67
2023-04-02T02:30:05.212Z,162.43
2023-04-02T02:31:05.224Z,162.49
2023-04-02T02:32:05.280Z,163.82
2023-04-02T02:33:05.297Z,162.12
2023-04-02T02:34:05.312Z,161.51
2023-04-02T02:35:05.329Z,163.27
2023-04-02T02:36:05.364Z,163.34
2023-04-02T02:37:05.373Z,166.14
2023-04-02T02:38:05.385Z,169.92
2023-04-02T02:39:05.411Z,166.35
2023-04-02T02:40:05.439Z,165.33
2023-04-02T02:41:05.467Z,166.45
2023-04-02T02:42:05.465Z,168.03
2023-04-02T02:43:05.507Z,168.69
2023-04-02T02:44:05.508Z,171.80
2023-04-02T02:45:05.520Z,170.38
2023-04-02T02:46:05.556Z,173.40
2023-04-02T02:47:05.521Z,174.13
2023-04-02T02:48:05.576Z,176.82
2023-04-02T02:49:05.530Z,176.40
2023-04-02T02:50:05.536Z,177.85
2023-04-02T02:51:05.596Z,179.56
2023-04-02T02:52:05.625Z,181.34
2023-04-02T02:53:05.650Z,178.20
2023-04-02T02:54:05.660Z,180.66
2023-04-02T02:55:05.709Z,179.55
2023-04-02T02:56:05.717Z,179.20
2023-04-02T02:57:05.784Z,183.65
2023-04-02T02:58:05.742Z,183.83
2023-04-02T02:59:05.771Z,182.37
2023-04-02T03:00:05.818Z,182.13
2023-04-02T03:01:05.849Z,180.92
2023-04-02T03:02:05.856Z,179.14
2023-04-02T03:03:06.028Z,177.86
2023-04-02T03:04:05.992Z,174.80
2023-04-02T03:05:05.924Z,174.25
2023-04-02T03:06:05.927Z,173.08
2023-04-02T03:07:05.945Z,171.96
2023-04-02T03:08:05.967Z,169.26
2023-04-02T03:09:05.992Z,164.90
2023-04-02T03:10:06.013Z,167.43
2023-04-02T03:11:06.012Z,166.96
2023-04-02T03:12:06.025Z,166.30
2023-04-02T03:13:06.027Z,165.46
2023-04-02T03:14:06.039Z,166.94
2023-04-02T03:15:06.080Z,167.78
2023-04-02T03:16:06.190Z,168.81
2023-04-02T03:17:06.121Z,168.97
2023-04-02T03:18:06.210Z,170.10
2023-04-02T03:19:06.164Z,170.75
2023-04-02T03:20:06.180Z,171.32
2023-04-02T03:21:06.220Z,173.84
2023-04-02T03:22:06.234Z,173.13
2023-04-02T03:23:06.265Z,177.77
2023-04-02T03:24:06.323Z,176.26
2023-04-02T03:25:06.301Z,173.22
2023-04-02T03:26:06.310Z,172.61
2023-04-02T03:27:06.446Z,172.40
2023-04-02T03:28:06.355Z,175.33
2023-04-02T03:29:06.377Z,174.05
2023-04-02T03:30:06.380Z,174.95
2023-04-02T03:31:06.474Z,175.01
2023-04-02T03:32:06.422Z,175.21
2023-04-02T03:33:06.461Z,178.08
2023-04-02T03:34:06.450Z,176.82
2023-04-02T03:35:06.487Z,176.97
2023-04-02T03:36:06.535Z,176.46
2023-04-02T03:37:06.548Z,174.81
2023-04-02T03:38:06.610Z,175.07
2023-04-02T03:39:06.614Z,174.18
2023-04-02T03:40:06.610Z,170.57
2023-04-02T03:41:06.668Z,169.42
2023-04-02T03:42:06.675Z,164.83
2023-04-02T03:43:06.697Z,167.18
2023-04-02T03:44:06.726Z,165.35
2023-04-02T03:45:06.747Z,161.62
2023-04-02T03:46:06.813Z,157.09
2023-04-02T03:47:06.831Z,157.10
2023-04-02T03:48:06.898Z,155.54
2023-04-02T03:49:06.922Z,148.50
2023-04-02T03:50:06.961Z,153.54
2023-04-02T03:51:06.948Z,157.35
2023-04-02T03:52:07.005Z,159.59
2023-04-02T03:53:07.033Z,162.87
2023-04-02T03:54:07.050Z,164.52
2023-04-02T03:55:07.070Z,168.41
2023-04-02T03:56:07.086Z,172.78
2023-04-02T03:57:07.168Z,174.05
2023-04-02T03:58:07.127Z,177.81
2023-04-02T03:59:07.146Z,181.66
2023-04-02T04:00:07.180Z,180.62
2023-04-02T04:01:07.175Z,182.35
2023-04-02T04:02:07.225Z,183.22
2023-04-02T04:03:07.227Z,182.40
2023-04-02T04:04:07.226Z,185.92
2023-04-02T04:05:07.210Z,186.79
2023-04-02T04:06:07.224Z,186.83
2023-04-02T04:07:07.307Z,188.33
2023-04-02T04:08:07.281Z,189.64
2023-04-02T04:09:07.280Z,193.58
2023-04-02T04:10:07.306Z,191.54
2023-04-02T04:11:07.351Z,190.14
2023-04-02T04:12:07.344Z,190.03
2023-04-02T04:13:07.349Z,189.30
2023-04-02T04:14:07.384Z,187.81
2023-04-02T04:15:07.383Z,187.75
2023-04-02T04:16:07.417Z,187.64
2023-04-02T04:17:07.418Z,188.52
2023-04-02T04:18:07.423Z,185.32
2023-04-02T04:19:07.398Z,188.31
2023-04-02T04:20:07.452Z,187.65
2023-04-02T04:21:07.403Z,185.91
2023-04-02T04:22:07.410Z,191.15
2023-04-02T04:23:07.420Z,190.51
2023-04-02T04:24:07.433Z,186.90
2023-04-02T04:25:07.429Z,184.45
2023-04-02T04:26:07.433Z,182.89
2023-04-02T04:27:07.433Z,180.95
2023-04-02T04:28:07.463Z,178.65
2023-04-02T04:29:07.452Z,174.50
2023-04-02T04:30:07.470Z,171.22
2023-04-02T04:31:07.451Z,169.79
2023-04-02T04:32:07.503Z,162.48
2023-04-02T04:33:07.487Z,164.89
2023-04-02T04:34:07.464Z,165.99
2023-04-02T04:35:07.482Z,167.40
2023-04-02T04:36:07.499Z,168.08
2023-04-02T04:37:07.498Z,167.55
2023-04-02T04:38:07.466Z,167.55
2023-04-02T04:39:07.508Z,171.86
2023-04-02T04:40:07.502Z,171.46
2023-04-02T04:41:07.500Z,171.69
2023-04-02T04:42:07.519Z,174.85
2023-04-02T04:43:07.532Z,178.07
2023-04-02T04:44:07.527Z,181.09
2023-04-02T04:45:07.514Z,187.50
2023-04-02T04:46:07.539Z,186.99
2023-04-02T04:47:07.527Z,188.42
2023-04-02T04:48:07.536Z,189.46
2023-04-02T04:49:07.533Z,189.77
2023-04-02T04:50:07.568Z,190.92
2023-04-02T04:51:07.585Z,187.75
2023-04-02T04:52:07.578Z,187.03
2023-04-02T04:53:07.579Z,186.24
2023-04-02T04:54:07.584Z,182.51
2023-04-02T04:55:07.593Z,181.44
2023-04-02T04:56:18.917Z,180.58
2023-04-02T04:57:08.649Z,180.76
2023-04-02T04:58:07.569Z,181.57
2023-04-02T04:59:07.580Z,183.00
2023-04-02T05:00:07.574Z,184.74
2023-04-02T05:01:07.619Z,186.38
2023-04-02T05:02:07.582Z,181.43
2023-04-02T05:03:07.577Z,180.90
2023-04-02T05:04:07.545Z,178.79
2023-04-02T05:05:07.539Z,181.14
2023-04-02T05:06:07.509Z,179.48
2023-04-02T05:07:07.508Z,183.27
2023-04-02T05:08:07.517Z,180.06
2023-04-02T05:09:07.493Z,182.37
2023-04-02T05:10:07.496Z,177.91
2023-04-02T05:11:07.472Z,181.17
2023-04-02T05:12:07.484Z,183.29
2023-04-02T05:13:07.512Z,183.43
2023-04-02T05:14:07.470Z,183.16
2023-04-02T05:15:07.477Z,180.71
2023-04-02T05:16:07.482Z,177.51
2023-04-02T05:17:07.452Z,177.48
2023-04-02T05:18:07.532Z,181.61
2023-04-02T05:19:07.431Z,181.47
2023-04-02T05:20:07.433Z,181.89
2023-04-02T05:21:07.410Z,183.21
2023-04-02T05:22:07.412Z,185.56
2023-04-02T05:23:07.416Z,182.03
2023-04-02T05:24:07.388Z,182.89
2023-04-02T05:25:07.387Z,181.63
2023-04-02T05:26:07.382Z,182.92
2023-04-02T05:27:07.368Z,183.29
2023-04-02T05:28:07.395Z,182.18
2023-04-02T05:29:07.360Z,183.19
2023-04-02T05:30:07.362Z,178.42
2023-04-02T05:31:07.419Z,179.13
2023-04-02T05:32:07.376Z,173.38
2023-04-02T05:33:07.400Z,174.27
2023-04-02T05:34:07.402Z,170.74
2023-04-02T05:35:07.435Z,171.17
2023-04-02T05:36:07.499Z,173.18
2023-04-02T05:37:07.466Z,175.50
2023-04-02T05:38:07.476Z,176.38
2023-04-02T05:39:07.469Z,176.81
2023-04-02T05:40:07.469Z,177.00
2023-04-02T05:41:07.519Z,171.90
2023-04-02T05:42:07.526Z,176.59
2023-04-02T05:43:07.588Z,176.26
2023-04-02T05:44:07.592Z,174.45
2023-04-02T05:45:07.627Z,174.93
2023-04-02T05:46:07.689Z,174.48
2023-04-02T05:47:07.723Z,175.25
2023-04-02T05:48:07.803Z,175.39
2023-04-02T05:49:07.803Z,179.95
2023-04-02T05:50:07.869Z,182.94
2023-04-02T05:51:07.881Z,182.60
2023-04-02T05:52:07.991Z,181.73
2023-04-02T05:53:08.049Z,184.62
2023-04-02T05:54:08.077Z,186.48
2023-04-02T05:55:08.129Z,186.02
2023-04-02T05:56:08.168Z,184.27
2023-04-02T05:57:08.279Z,184.69
2023-04-02T05:59:09.268Z,183.15
2023-04-02T06:00:08.322Z,183.23
2023-04-02T06:01:08.267Z,183.73
2023-04-02T06:02:08.306Z,184.76
2023-04-02T06:03:08.422Z,186.93
2023-04-02T06:04:08.353Z,187.05
2023-04-02T06:05:08.222Z,188.94
2023-04-02T06:06:08.220Z,188.68
2023-04-02T06:07:08.234Z,185.77
2023-04-02T06:08:08.278Z,186.26
2023-04-02T06:09:08.321Z,185.81
2023-04-02T06:10:08.357Z,188.58
2023-04-02T06:11:08.388Z,189.33
2023-04-02T06:12:08.401Z,191.54
2023-04-02T06:13:08.419Z,193.81
2023-04-02T06:14:08.400Z,202.40
2023-04-02T06:15:08.399Z,205.65
2023-04-02T06:16:08.462Z,209.69
2023-04-02T06:17:08.494Z,211.30
2023-04-02T06:18:08.634Z,208.94
2023-04-02T06:19:08.624Z,218.12
2023-04-02T06:20:08.663Z,212.71
2023-04-02T06:21:08.712Z,221.22
2023-04-02T06:22:08.764Z,215.00
2023-04-02T06:23:08.816Z,217.85
2023-04-02T06:24:08.836Z,213.11
2023-04-02T06:25:08.890Z,227.09
2023-04-02T06:26:08.890Z,234.04
2023-04-02T06:27:08.931Z,229.87
2023-04-02T06:28:08.935Z,223.16
2023-04-02T06:29:08.939Z,217.34
2023-04-02T06:30:08.933Z,222.26
2023-04-02T06:31:09.044Z,222.35
2023-04-02T06:32:09.040Z,227.66
2023-04-02T06:33:09.139Z,234.96
2023-04-02T06:34:09.092Z,234.72
2023-04-02T06:35:09.138Z,243.22
2023-04-02T06:36:09.155Z,245.74
2023-04-02T06:37:09.126Z,250.00
2023-04-02T06:38:09.216Z,250.00
2023-04-02T06:39:09.255Z,249.55
2023-04-02T06:40:09.292Z,250.03
2023-04-02T06:41:09.320Z,250.00
2023-04-02T06:42:09.356Z,250.13
2023-04-02T06:43:09.402Z,245.33
2023-04-02T06:44:09.421Z,236.43
2023-04-02T06:45:09.412Z,233.11
2023-04-02T06:46:09.474Z,233.29
2023-04-02T06:47:09.452Z,227.53
2023-04-02T06:48:09.498Z,220.42
2023-04-02T06:49:09.517Z,212.86
2023-04-02T06:50:09.588Z,205.75
2023-04-02T06:51:09.591Z,201.12
2023-04-02T06:52:09.614Z,201.24
2023-04-02T06:53:09.680Z,214.51
2023-04-02T06:54:09.694Z,224.77
2023-04-02T06:55:09.736Z,226.63
2023-04-02T06:56:09.739Z,238.86
2023-04-02T06:57:09.823Z,247.84
2023-04-02T06:58:09.813Z,250.42
2023-04-02T06:59:09.861Z,250.00
2023-04-02T07:00:09.848Z,240.58
2023-04-02T07:01:09.883Z,238.21
2023-04-02T07:02:09.853Z,236.57
2023-04-02T07:03:09.891Z,231.72
2023-04-02T07:04:09.873Z,228.48
2023-04-02T07:05:10.003Z,226.19
2023-04-02T07:06:09.925Z,223.86
2023-04-02T07:07:09.915Z,221.30
2023-04-02T07:08:09.928Z,218.59
2023-04-02T07:09:09.946Z,218.13
2023-04-02T07:10:09.947Z,216.25
2023-04-02T07:11:09.996Z,210.62
2023-04-02T07:12:10.021Z,207.37
2023-04-02T07:13:10.041Z,200.49
2023-04-02T07:14:10.027Z,194.88
2023-04-02T07:15:10.053Z,187.64
2023-04-02T07:16:10.108Z,186.37
2023-04-02T07:17:10.113Z,182.29
2023-04-02T07:18:10.217Z,175.53
2023-04-02T07:19:10.189Z,165.33
2023-04-02T07:20:10.209Z,157.87
2023-04-02T07:21:10.206Z,150.18
2023-04-02T07:22:10.243Z,151.64
2023-04-02T07:23:10.259Z,155.66
2023-04-02T07:24:10.343Z,150.08
2023-04-02T07:25:10.371Z,145.50
2023-04-02T07:26:10.432Z,137.79
2023-04-02T07:27:10.483Z,133.41
2023-04-02T07:28:10.510Z,131.48
2023-04-02T07:29:10.507Z,127.71
2023-04-02T07:30:10.500Z,124.12
2023-04-02T07:31:10.522Z,124.08
2023-04-02T07:32:10.535Z,123.20
2023-04-02T07:33:10.588Z,121.20
2023-04-02T07:34:10.519Z,117.03
2023-04-02T07:35:10.534Z,122.36
2023-04-02T07:36:10.588Z,131.02
2023-04-02T07:37:10.587Z,139.34
2023-04-02T07:38:10.620Z,145.58
2023-04-02T07:39:10.637Z,144.81
2023-04-02T07:40:10.664Z,150.87
2023-04-02T07:41:10.660Z,154.42
2023-04-02T07:42:10.655Z,155.79
2023-04-02T07:43:10.728Z,161.64
2023-04-02T07:44:10.776Z,160.44
2023-04-02T07:45:10.818Z,166.38
2023-04-02T07:46:10.893Z,165.12
2023-04-02T07:47:10.881Z,171.06
2023-04-02T07:48:10.887Z,172.08
2023-04-02T07:49:10.908Z,172.26
2023-04-02T07:50:10.938Z,170.36
2023-04-02T07:51:10.998Z,171.01
2023-04-02T07:52:11.020Z,176.59
2023-04-02T07:53:11.044Z,175.07
2023-04-02T07:54:11.045Z,181.22
2023-04-02T07:55:11.091Z,180.05
2023-04-02T07:56:11.111Z,184.53
2023-04-02T07:57:11.179Z,188.55
2023-04-02T07:58:11.235Z,193.08
2023-04-02T07:59:11.248Z,182.70
2023-04-02T08:00:11.292Z,192.18
2023-04-02T08:01:11.311Z,177.54
2023-04-02T08:02:11.363Z,171.45
2023-04-02T08:03:11.521Z,163.11
2023-04-02T08:04:11.413Z,160.56
2023-04-02T08:05:11.405Z,165.68
2023-04-02T08:06:11.401Z,154.71
2023-04-02T08:07:11.434Z,147.94
2023-04-02T08:08:11.467Z,131.49
2023-04-02T08:09:11.490Z,125.47
2023-04-02T08:10:11.504Z,125.41
2023-04-02T08:11:11.536Z,118.01
2023-04-02T08:12:11.567Z,102.56
2023-04-02T08:13:11.596Z,91.34
2023-04-02T08:14:11.653Z,64.40
2023-04-02T08:15:11.659Z,81.08
2023-04-02T08:16:11.837Z,67.47
2023-04-02T08:17:11.776Z,73.87
2023-04-02T08:18:11.836Z,71.83
2023-04-02T08:19:11.878Z,75.19
2023-04-02T08:20:11.948Z,66.78
2023-04-02T08:21:12.439Z,48.69
2023-04-02T08:22:12.038Z,69.96
2023-04-02T08:23:12.088Z,57.23
2023-04-02T08:24:12.100Z,49.72
2023-04-02T08:25:12.086Z,28.73
2023-04-02T08:26:12.121Z,34.81
2023-04-02T08:27:12.091Z,25.49
2023-04-02T08:28:12.091Z,26.04
2023-04-02T08:29:12.107Z,24.70
2023-04-02T08:30:12.120Z,27.83
2023-04-02T08:31:12.182Z,22.89
2023-04-02T08:32:12.183Z,40.67
2023-04-02T08:33:12.271Z,37.35
2023-04-02T08:34:12.259Z,22.56
2023-04-02T08:35:12.312Z,24.44
2023-04-02T08:36:12.380Z,21.51
2023-04-02T08:37:12.408Z,22.79
2023-04-02T08:38:12.404Z,24.74
2023-04-02T08:39:12.415Z,26.61
2023-04-02T08:40:12.411Z,28.03
2023-04-02T08:41:12.435Z,31.94
2023-04-02T08:42:12.457Z,30.47
2023-04-02T08:43:12.474Z,24.75
2023-04-02T08:44:12.513Z,26.22
2023-04-02T08:45:24.401Z,24.87
2023-04-02T08:46:13.577Z,19.27
2023-04-02T08:47:12.528Z,19.42
2023-04-02T08:48:12.504Z,17.70
2023-04-02T08:49:12.512Z,15.81
2023-04-02T08:50:12.500Z,12.98
2023-04-02T08:51:12.488Z,20.15
2023-04-02T08:52:12.491Z,26.66
2023-04-02T08:53:12.515Z,29.81
2023-04-02T08:54:12.472Z,25.00
2023-04-02T08:55:12.532Z,32.31
2023-04-02T08:56:12.464Z,33.17
2023-04-02T08:57:12.506Z,34.75
2023-04-02T08:58:12.491Z,43.08
2023-04-02T08:59:12.540Z,35.85
2023-04-02T09:00:12.586Z,46.97
2023-04-02T09:01:12.646Z,49.85
2023-04-02T09:02:12.704Z,64.41
2023-04-02T09:03:12.766Z,59.88
2023-04-02T09:04:12.851Z,67.78
2023-04-02T09:05:12.889Z,85.22
2023-04-02T09:06:14.727Z,74.38
2023-04-02T09:07:12.914Z,67.49
2023-04-02T09:08:12.898Z,71.29
2023-04-02T09:09:12.897Z,69.53
2023-04-02T09:10:12.893Z,66.27
2023-04-02T09:11:12.889Z,71.15
2023-04-02T09:12:12.871Z,82.26
2023-04-02T09:13:12.880Z,79.73
2023-04-02T09:14:12.865Z,72.34
2023-04-02T09:15:12.856Z,81.82
2023-04-02T09:16:12.887Z,79.68
2023-04-02T09:17:12.852Z,75.82
2023-04-02T09:18:12.916Z,70.62
2023-04-02T09:19:12.832Z,56.32
2023-04-02T09:20:12.813Z,62.92
2023-04-02T09:21:12.818Z,61.46
2023-04-02T09:22:12.798Z,58.74
2023-04-02T09:23:12.794Z,63.64
2023-04-02T09:24:12.792Z,56.83
2023-04-02T09:25:12.778Z,58.25
2023-04-02T09:26:12.784Z,65.80
2023-04-02T09:27:12.764Z,67.97
2023-04-02T09:28:12.752Z,72.73
2023-04-02T09:29:12.779Z,63.13
2023-04-02T09:30:12.763Z,79.50
2023-04-02T09:31:12.762Z,77.02
2023-04-02T09:32:12.743Z,77.20
2023-04-02T09:33:12.766Z,79.19
2023-04-02T09:34:12.745Z,85.04
2023-04-02T09:35:24.579Z,82.68
2023-04-02T09:36:15.679Z,78.54
2023-04-02T09:37:12.694Z,84.54
2023-04-02T09:38:12.733Z,88.30
2023-04-02T09:39:12.744Z,90.96
2023-04-02T09:40:12.681Z,83.91
2023-04-02T09:41:12.677Z,95.19
2023-04-02T09:42:12.678Z,86.83
2023-04-02T09:43:12.726Z,96.86
2023-04-02T09:44:12.681Z,91.02
2023-04-02T09:45:12.671Z,103.16
2023-04-02T09:46:12.681Z,94.33
2023-04-02T09:47:12.640Z,102.07
2023-04-02T09:48:12.663Z,102.34
2023-04-02T09:49:12.625Z,102.87
2023-04-02T09:50:12.626Z,107.69
2023-04-02T09:51:12.658Z,113.01
2023-04-02T09:52:12.623Z,120.84
2023-04-02T09:53:12.628Z,114.60
2023-04-02T09:54:12.714Z,122.72
2023-04-02T09:55:12.606Z,120.31
2023-04-02T09:56:12.580Z,122.44
2023-04-02T09:57:12.590Z,137.58
2023-04-02T09:58:12.575Z,129.46
2023-04-02T09:59:12.577Z,130.13
2023-04-02T10:00:21.821Z,139.39
2023-04-02T10:01:13.591Z,139.42
2023-04-02T10:02:12.533Z,140.62
2023-04-02T10:03:12.546Z,142.85
2023-04-02T10:04:12.562Z,147.72
2023-04-02T10:05:12.542Z,156.91
2023-04-02T10:06:12.510Z,158.87
2023-04-02T10:07:12.512Z,156.33
2023-04-02T10:08:12.503Z,160.94
2023-04-02T10:09:12.527Z,160.19
2023-04-02T10:10:12.531Z,161.74
2023-04-02T10:11:12.492Z,162.64
2023-04-02T10:12:12.542Z,165.08
2023-04-02T10:13:12.592Z,166.06
2023-04-02T10:14:12.653Z,164.05
2023-04-02T10:15:12.693Z,170.16
2023-04-02T10:16:12.793Z,170.26
2023-04-02T10:17:12.883Z,166.83
2023-04-02T10:18:12.884Z,169.68
2023-04-02T10:19:12.963Z,170.77
2023-04-02T10:20:13.067Z,166.82
2023-04-02T10:21:13.072Z,168.15
2023-04-02T10:22:13.149Z,168.56
2023-04-02T10:23:13.217Z,168.86
2023-04-02T10:24:13.305Z,171.27
2023-04-02T10:25:13.333Z,172.23
2023-04-02T10:26:13.393Z,172.66
2023-04-02T10:27:13.445Z,175.76
2023-04-02T10:28:13.521Z,176.46
2023-04-02T10:29:13.565Z,173.61
2023-04-02T10:30:13.619Z,175.47
2023-04-02T10:31:13.690Z,175.12
2023-04-02T10:32:13.740Z,173.82
2023-04-02T10:33:13.809Z,175.03
2023-04-02T10:34:13.878Z,163.81
2023-04-02T10:35:13.937Z,163.69
2023-04-02T10:36:14.015Z,168.76
2023-04-02T10:37:14.029Z,163.68
2023-04-02T10:38:14.092Z,165.45
2023-04-02T10:39:14.128Z,163.93
2023-04-02T10:40:14.189Z,162.00
2023-04-02T10:41:14.218Z,151.05
2023-04-02T10:42:14.240Z,154.08
2023-04-02T10:43:14.291Z,158.23
2023-04-02T10:44:20.189Z,149.53
2023-04-02T10:45:15.328Z,149.67
2023-04-02T10:46:14.397Z,149.79
2023-04-02T10:47:14.306Z,150.32
2023-04-02T10:48:14.330Z,151.04
2023-04-02T10:49:14.296Z,146.36
2023-04-02T10:50:14.311Z,129.73
2023-04-02T10:51:14.294Z,134.40
2023-04-02T10:52:14.280Z,137.78
2023-04-02T10:53:14.280Z,137.20
2023-04-02T10:54:14.276Z,134.92
2023-04-02T10:55:14.253Z,142.14
2023-04-02T10:56:14.277Z,138.83
2023-04-02T10:57:14.444Z,146.41
2023-04-02T10:58:14.351Z,138.06
2023-04-02T10:59:14.431Z,138.62
2023-04-02T11:00:14.470Z,150.68
2023-04-02T11:01:14.564Z,154.33
2023-04-02T11:02:14.594Z,147.12
2023-04-02T11:03:14.732Z,150.84
2023-04-02T11:04:14.713Z,156.57
2023-04-02T11:05:14.765Z,158.98
2023-04-02T11:06:14.806Z,167.48
2023-04-02T11:07:15.146Z,168.16
2023-04-02T11:08:14.865Z,169.09
2023-04-02T11:09:14.915Z,167.86
2023-04-02T11:10:14.898Z,172.61
2023-04-02T11:11:14.942Z,170.83
2023-04-02T11:12:14.944Z,177.56
2023-04-02T11:13:14.938Z,175.53
2023-04-02T11:14:14.963Z,176.95
2023-04-02T11:15:14.950Z,174.93
2023-04-02T11:16:14.983Z,175.04
2023-04-02T11:17:14.955Z,176.40
2023-04-02T11:18:14.948Z,177.71
2023-04-02T11:19:14.937Z,177.67
2023-04-02T11:20:14.945Z,177.47
2023-04-02T11:21:14.955Z,178.30
2023-04-02T11:22:14.950Z,174.25
2023-04-02T11:23:14.954Z,178.14
2023-04-02T11:24:14.956Z,176.27
2023-04-02T11:25:14.957Z,176.50
2023-04-02T11:26:14.958Z,177.35
2023-04-02T11:27:14.966Z,176.84
2023-04-02T11:28:14.950Z,177.31
2023-04-02T11:29:14.987Z,169.17
2023-04-02T11:30:14.980Z,174.67
2023-04-02T11:31:15.019Z,168.00
2023-04-02T11:32:14.986Z,171.94
2023-04-02T11:33:18.647Z,168.15
2023-04-02T11:34:15.984Z,162.85
2023-04-02T11:35:14.973Z,153.85
2023-04-02T11:36:14.982Z,162.17
2023-04-02T11:37:14.972Z,160.54
2023-04-02T11:38:14.944Z,161.30
2023-04-02T11:39:17.701Z,142.96
2023-04-02T11:40:14.965Z,158.72
2023-04-02T11:41:14.944Z,155.24
2023-04-02T11:42:14.935Z,149.52
2023-04-02T11:43:14.919Z,143.35
2023-04-02T11:44:14.947Z,139.74
2023-04-02T11:45:14.919Z,144.94
2023-04-02T11:46:14.942Z,141.43
2023-04-02T11:47:14.903Z,137.96
2023-04-02T11:48:14.888Z,114.84
2023-04-02T11:49:14.906Z,117.39
2023-04-02T11:50:14.874Z,108.62
2023-04-02T11:51:14.885Z,99.05
2023-04-02T11:52:14.863Z,106.86
2023-04-02T11:53:14.861Z,111.53
2023-04-02T11:54:14.854Z,102.03
2023-04-02T11:55:14.850Z,101.29
2023-04-02T11:56:14.832Z,100.52
2023-04-02T11:57:14.878Z,102.86
2023-04-02T11:58:14.839Z,105.02
2023-04-02T11:59:14.812Z,107.32
2023-04-02T12:00:16.213Z,116.87
2023-04-02T12:01:14.958Z,117.01
2023-04-02T12:02:14.838Z,118.49
2023-04-02T12:03:14.852Z,118.53
2023-04-02T12:04:14.796Z,122.28
2023-04-02T12:05:14.849Z,139.12
2023-04-02T12:06:14.761Z,137.32
2023-04-02T12:07:14.767Z,148.59
2023-04-02T12:08:14.748Z,156.21
2023-04-02T12:09:14.750Z,166.86
2023-04-02T12:10:14.734Z,173.33
2023-04-02T12:11:14.741Z,174.89
2023-04-02T12:12:14.767Z,173.11
2023-04-02T12:13:14.720Z,170.54
2023-04-02T12:14:14.714Z,169.06
2023-04-02T12:15:14.696Z,166.31
2023-04-02T12:16:14.711Z,169.33
2023-04-02T12:17:14.758Z,164.83
2023-04-02T12:18:14.700Z,166.00
2023-04-02T12:19:14.679Z,165.45
2023-04-02T12:20:14.671Z,164.75
2023-04-02T12:21:14.669Z,164.45
2023-04-02T12:22:14.650Z,163.13
2023-04-02T12:23:14.661Z,166.39
2023-04-02T12:24:14.654Z,163.44
2023-04-02T12:25:14.638Z,165.36
2023-04-02T12:26:14.682Z,164.14
2023-04-02T12:27:14.640Z,161.79
2023-04-02T12:28:14.622Z,159.91
2023-04-02T12:29:14.626Z,158.39
2023-04-02T12:30:14.616Z,163.27
2023-04-02T12:31:14.639Z,166.23
2023-04-02T12:32:14.599Z,169.22
2023-04-02T12:33:14.637Z,170.32